createdAt,value
2017-06-28T00:00:16.921Z,15.57
2017-06-28T00:02:45.244Z,15.33
2017-06-28T00:05:12.798Z,15.37
2017-06-28T00:07:40.365Z,16.97
2017-06-28T00:10:07.894Z,16.90
2017-06-28T00:12:35.477Z,15.93
2017-06-28T00:15:03.040Z,16.40
2017-06-28T00:17:30.593Z,15.73
2017-06-28T00:19:58.154Z,17.50
2017-06-28T00:22:25.711Z,17.00
2017-06-28T00:24:53.241Z,17.70
2017-06-28T00:27:20.762Z,17.37
2017-06-28T00:29:48.284Z,18.93
2017-06-28T00:32:15.846Z,16.03
2017-06-28T00:34:43.371Z,17.80
2017-06-28T00:37:11.657Z,18.00
2017-06-28T00:39:39.238Z,16.40
2017-06-28T00:42:06.769Z,17.10
2017-06-28T00:44:34.365Z,16.60
2017-06-28T00:47:01.914Z,16.70
2017-06-28T00:49:29.476Z,16.87
2017-06-28T00:51:57.033Z,16.17
2017-06-28T00:54:24.557Z,16.27
2017-06-28T00:56:52.845Z,15.97
2017-06-28T00:59:20.442Z,15.00
2017-06-28T01:01:47.960Z,14.97
2017-06-28T01:04:15.477Z,16.47
2017-06-28T01:06:43.109Z,15.17
2017-06-28T01:09:10.661Z,15.10
2017-06-28T01:11:38.177Z,16.03
2017-06-28T01:14:06.497Z,15.97
2017-06-28T01:16:34.016Z,15.30
2017-06-28T01:19:02.338Z,15.63
2017-06-28T01:21:29.893Z,17.07
2017-06-28T01:23:57.449Z,16.63
2017-06-28T01:26:25.008Z,16.37
2017-06-28T01:28:52.521Z,15.50
2017-06-28T01:31:20.849Z,15.87
2017-06-28T01:33:48.404Z,15.23
2017-06-28T01:36:15.965Z,15.10
2017-06-28T01:38:43.481Z,16.20
2017-06-28T01:41:11.805Z,16.03
2017-06-28T01:43:39.457Z,17.93
2017-06-28T01:46:07.016Z,17.93
2017-06-28T01:48:34.539Z,16.97
2017-06-28T01:51:02.831Z,17.70
2017-06-28T01:53:30.366Z,17.30
2017-06-28T01:55:58.656Z,17.07
2017-06-28T01:58:26.961Z,18.63
2017-06-28T02:00:54.477Z,19.47
2017-06-28T02:03:22.805Z,20.40
2017-06-28T02:05:50.355Z,20.83
2017-06-28T02:08:17.881Z,19.50
2017-06-28T02:10:46.169Z,21.50
2017-06-28T02:13:13.748Z,22.10
2017-06-28T02:15:41.307Z,21.87
2017-06-28T02:18:08.829Z,23.00
2017-06-28T02:20:37.126Z,22.63
2017-06-28T02:23:04.701Z,24.40
2017-06-28T02:25:32.226Z,22.80
2017-06-28T02:28:00.509Z,24.70
2017-06-28T02:30:28.100Z,24.30
2017-06-28T02:32:55.970Z,26.63
2017-06-28T02:35:23.485Z,26.80
2017-06-28T02:37:51.768Z,24.97
2017-06-28T02:40:19.364Z,25.10
2017-06-28T02:42:46.916Z,21.70
2017-06-28T02:45:14.472Z,23.10
2017-06-28T02:47:42.031Z,21.80
2017-06-28T02:50:09.591Z,19.63
2017-06-28T02:52:37.149Z,19.60
2017-06-28T02:55:04.713Z,19.43
2017-06-28T02:57:32.241Z,19.60
2017-06-28T02:59:59.760Z,19.07
2017-06-28T03:02:27.381Z,18.87
2017-06-28T03:04:54.898Z,21.23
2017-06-28T03:07:26.034Z,18.23
2017-06-28T03:09:53.653Z,18.67
2017-06-28T03:12:21.168Z,18.60
2017-06-28T03:14:49.485Z,19.30
2017-06-28T03:17:17.009Z,18.70
2017-06-28T03:19:45.322Z,19.00
2017-06-28T03:22:12.845Z,19.63
2017-06-28T03:24:41.125Z,18.43
2017-06-28T03:27:08.709Z,18.23
2017-06-28T03:29:36.270Z,16.10
2017-06-28T03:32:03.832Z,18.10
2017-06-28T03:34:31.385Z,18.67
2017-06-28T03:36:58.945Z,17.77
2017-06-28T03:39:26.464Z,17.20
2017-06-28T03:41:54.752Z,15.83
2017-06-28T03:44:22.337Z,18.13
2017-06-28T03:46:49.853Z,17.60
2017-06-28T03:49:18.184Z,14.67
2017-06-28T03:51:45.732Z,14.87
2017-06-28T03:54:13.293Z,15.43
2017-06-28T03:56:40.817Z,15.40
2017-06-28T03:59:09.128Z,15.50
2017-06-28T04:01:36.686Z,15.90
2017-06-28T04:04:04.245Z,15.07
2017-06-28T04:06:31.803Z,15.00
2017-06-28T04:08:59.363Z,17.00
2017-06-28T04:11:26.921Z,15.83
2017-06-28T04:13:54.478Z,17.20
2017-06-28T04:16:22.000Z,17.67
2017-06-28T04:18:50.293Z,17.13
2017-06-28T04:21:17.885Z,17.97
2017-06-28T04:23:45.409Z,16.17
2017-06-28T04:26:12.991Z,15.83
2017-06-28T04:28:40.521Z,16.47
2017-06-28T04:31:08.830Z,15.70
2017-06-28T04:33:36.361Z,15.37
2017-06-28T04:36:03.898Z,16.50
2017-06-28T04:38:32.182Z,16.50
2017-06-28T04:41:00.493Z,16.47
2017-06-28T04:43:28.058Z,15.10
2017-06-28T04:45:55.616Z,16.47
2017-06-28T04:48:23.173Z,16.60
2017-06-28T04:50:50.733Z,15.83
2017-06-28T04:53:18.296Z,16.67
2017-06-28T04:55:45.851Z,16.60
2017-06-28T04:58:13.409Z,16.83
2017-06-28T05:00:40.965Z,16.70
2017-06-28T05:03:08.528Z,15.37
2017-06-28T05:05:36.084Z,16.40
2017-06-28T05:08:03.646Z,17.30
2017-06-28T05:10:31.168Z,16.40
2017-06-28T05:12:59.477Z,15.50
2017-06-28T05:15:27.036Z,16.30
2017-06-28T05:17:54.600Z,17.20
2017-06-28T05:20:22.126Z,18.17
2017-06-28T05:22:50.432Z,17.93
2017-06-28T05:25:17.964Z,19.00
2017-06-28T05:27:45.502Z,17.87
2017-06-28T05:30:13.828Z,17.40
2017-06-28T05:32:41.352Z,18.40
2017-06-28T05:35:09.655Z,21.23
2017-06-28T05:37:37.181Z,17.60
2017-06-28T05:40:05.492Z,17.70
2017-06-28T05:42:33.053Z,16.57
2017-06-28T05:45:00.610Z,19.77
2017-06-28T05:47:28.173Z,18.10
2017-06-28T05:49:55.685Z,20.43
2017-06-28T05:52:24.009Z,20.27
2017-06-28T05:54:51.566Z,18.60
2017-06-28T05:57:19.124Z,19.67
2017-06-28T05:59:46.693Z,20.83
2017-06-28T06:02:14.213Z,22.00
2017-06-28T06:04:41.742Z,20.20
2017-06-28T06:07:09.269Z,22.00
2017-06-28T06:09:36.817Z,20.13
2017-06-28T06:12:04.373Z,24.20
2017-06-28T06:14:31.904Z,22.37
2017-06-28T06:17:00.213Z,23.27
2017-06-28T06:19:27.769Z,22.80
2017-06-28T06:21:55.288Z,24.40
2017-06-28T06:24:23.605Z,24.27
2017-06-28T06:26:51.133Z,23.40
2017-06-28T06:29:19.442Z,22.70
2017-06-28T06:31:46.996Z,22.93
2017-06-28T06:34:14.517Z,22.00
2017-06-28T06:36:42.808Z,23.73
2017-06-28T06:39:10.338Z,25.20
2017-06-28T06:41:37.853Z,24.50
2017-06-28T06:44:05.409Z,23.17
2017-06-28T06:46:32.973Z,23.87
2017-06-28T06:49:00.522Z,27.30
2017-06-28T06:51:28.041Z,27.20
2017-06-28T06:53:56.360Z,25.97
2017-06-28T06:56:23.917Z,25.57
2017-06-28T06:58:51.475Z,25.60
2017-06-28T07:01:19.037Z,25.20
2017-06-28T07:03:46.552Z,25.40
2017-06-28T07:06:14.850Z,26.10
2017-06-28T07:08:42.437Z,27.30
2017-06-28T07:11:09.986Z,27.20
2017-06-28T07:13:37.546Z,26.93
2017-06-28T07:16:05.073Z,26.93
2017-06-28T07:18:32.606Z,30.33
2017-06-28T07:21:00.132Z,30.40
2017-06-28T07:23:27.656Z,33.30
2017-06-28T07:25:55.240Z,31.07
2017-06-28T07:28:22.765Z,30.87
2017-06-28T07:30:51.053Z,29.77
2017-06-28T07:33:18.837Z,33.40
2017-06-28T07:35:46.404Z,31.10
2017-06-28T07:38:13.955Z,29.93
2017-06-28T07:40:41.516Z,33.33
2017-06-28T07:43:09.081Z,31.03
2017-06-28T07:45:36.733Z,32.57
2017-06-28T07:48:04.249Z,32.97
2017-06-28T07:50:32.569Z,34.43
2017-06-28T07:53:00.133Z,31.97
2017-06-28T07:55:27.689Z,30.70
2017-06-28T07:57:55.247Z,31.67
2017-06-28T08:00:22.776Z,32.17
2017-06-28T08:02:51.061Z,31.83
2017-06-28T08:05:18.589Z,32.73
2017-06-28T08:07:46.117Z,32.27
2017-06-28T08:10:13.644Z,32.57
2017-06-28T08:12:41.160Z,33.30
2017-06-28T08:15:08.791Z,31.30
2017-06-28T08:17:36.332Z,33.50
2017-06-28T08:20:03.857Z,34.20
2017-06-28T08:22:32.173Z,32.23
2017-06-28T08:24:59.730Z,31.13
2017-06-28T08:27:27.286Z,31.23
2017-06-28T08:29:54.849Z,32.43
2017-06-28T08:32:22.381Z,32.23
2017-06-28T08:34:49.910Z,30.77
2017-06-28T08:37:17.532Z,32.60
2017-06-28T08:39:45.089Z,31.37
2017-06-28T08:42:12.621Z,32.27
2017-06-28T08:44:40.202Z,33.43
2017-06-28T08:47:07.729Z,31.47
2017-06-28T08:49:35.256Z,30.90
2017-06-28T08:52:02.876Z,33.83
2017-06-28T08:54:30.435Z,32.47
2017-06-28T08:56:57.953Z,33.83
2017-06-28T08:59:26.273Z,35.47
2017-06-28T09:01:53.833Z,32.30
2017-06-28T09:04:21.390Z,34.07
2017-06-28T09:06:48.947Z,35.60
2017-06-28T09:09:16.505Z,35.47
2017-06-28T09:11:44.065Z,34.93
2017-06-28T09:14:11.625Z,36.07
2017-06-28T09:16:39.184Z,36.13
2017-06-28T09:19:06.745Z,37.00
2017-06-28T09:21:34.303Z,34.60
2017-06-28T09:24:01.861Z,39.40
2017-06-28T09:26:29.410Z,39.90
2017-06-28T09:28:56.985Z,38.20
2017-06-28T09:31:24.538Z,39.40
2017-06-28T09:33:52.097Z,39.20
2017-06-28T09:36:19.653Z,39.13
2017-06-28T09:38:47.171Z,39.60
2017-06-28T09:41:14.776Z,40.13
2017-06-28T09:43:42.300Z,41.43
2017-06-28T09:46:10.588Z,43.47
2017-06-28T09:48:38.170Z,40.13
2017-06-28T09:51:05.729Z,40.83
2017-06-28T09:53:33.286Z,40.80
2017-06-28T09:56:00.806Z,43.10
2017-06-28T09:58:29.117Z,42.30
2017-06-28T10:00:56.678Z,41.60
2017-06-28T10:03:24.254Z,39.83
2017-06-28T10:05:51.796Z,45.17
2017-06-28T10:08:19.353Z,44.30
2017-06-28T10:10:46.884Z,42.33
2017-06-28T10:13:15.300Z,43.43
2017-06-28T10:15:42.850Z,44.07
2017-06-28T10:18:10.373Z,43.97
2017-06-28T10:20:38.689Z,43.87
2017-06-28T10:23:06.251Z,42.33
2017-06-28T10:25:33.810Z,39.90
2017-06-28T10:28:01.370Z,40.60
2017-06-28T10:30:28.921Z,41.00
2017-06-28T10:32:56.441Z,41.00
2017-06-28T10:35:24.734Z,38.17
2017-06-28T10:37:52.265Z,39.30
2017-06-28T10:40:20.589Z,37.40
2017-06-28T10:42:48.153Z,34.70
2017-06-28T10:45:15.714Z,34.80
2017-06-28T10:47:43.242Z,33.33
2017-06-28T10:50:10.847Z,35.37
2017-06-28T10:52:38.391Z,31.17
2017-06-28T10:55:05.909Z,31.80
2017-06-28T10:57:34.226Z,31.93
2017-06-28T11:00:01.780Z,30.67
2017-06-28T11:02:29.350Z,30.33
2017-06-28T11:04:56.868Z,27.50
2017-06-28T11:07:24.406Z,30.17
2017-06-28T11:09:52.029Z,26.70
2017-06-28T11:12:19.574Z,25.57
2017-06-28T11:14:47.101Z,29.20
2017-06-28T11:17:15.417Z,25.07
2017-06-28T11:19:42.968Z,28.90
2017-06-28T11:22:10.529Z,29.47
2017-06-28T11:24:38.085Z,28.63
2017-06-28T11:27:05.617Z,27.53
2017-06-28T11:29:33.209Z,27.90
2017-06-28T11:32:00.766Z,25.50
2017-06-28T11:34:28.324Z,26.87
2017-06-28T11:36:55.888Z,24.37
2017-06-28T11:39:23.441Z,26.30
2017-06-28T11:41:51.002Z,24.10
2017-06-28T11:44:18.559Z,23.90
2017-06-28T11:46:46.117Z,22.57
2017-06-28T11:49:13.677Z,23.53
2017-06-28T11:51:41.238Z,23.23
2017-06-28T11:54:08.762Z,22.93
2017-06-28T11:56:37.070Z,23.17
2017-06-28T11:59:04.601Z,22.33
2017-06-28T12:01:32.909Z,21.87
2017-06-28T12:04:00.465Z,20.90
2017-06-28T12:06:28.025Z,20.40
2017-06-28T12:08:55.587Z,20.50
2017-06-28T12:11:23.122Z,20.17
2017-06-28T12:13:50.703Z,21.40
2017-06-28T12:16:18.361Z,20.40
2017-06-28T12:18:45.884Z,19.93
2017-06-28T12:21:14.202Z,19.63
2017-06-28T12:23:42.035Z,17.73
2017-06-28T12:26:09.565Z,19.50
2017-06-28T12:28:37.189Z,19.67
2017-06-28T12:31:04.720Z,17.50
2017-06-28T12:33:32.300Z,17.57
2017-06-28T12:35:59.821Z,16.50
2017-06-28T12:38:28.134Z,17.13
2017-06-28T12:40:55.689Z,17.60
2017-06-28T12:43:23.205Z,18.33
2017-06-28T12:45:51.531Z,18.00
2017-06-28T12:48:19.089Z,17.47
2017-06-28T12:50:46.647Z,16.80
2017-06-28T12:53:14.210Z,17.73
2017-06-28T12:55:41.770Z,17.53
2017-06-28T12:58:09.313Z,17.00
2017-06-28T13:00:36.837Z,16.67
2017-06-28T13:03:05.158Z,16.87
2017-06-28T13:05:33.154Z,16.97
2017-06-28T13:08:00.793Z,15.70
2017-06-28T13:10:28.348Z,16.60
2017-06-28T13:12:55.906Z,15.53
2017-06-28T13:15:23.465Z,16.57
2017-06-28T13:17:51.050Z,13.33
2017-06-28T13:20:18.573Z,13.33
2017-06-28T13:22:46.149Z,14.23
2017-06-28T13:25:13.717Z,9.97
2017-06-28T13:27:41.265Z,9.00
2017-06-28T13:30:08.789Z,7.90
2017-06-28T13:32:37.098Z,8.13
2017-06-28T13:35:04.621Z,8.30
2017-06-28T13:37:32.932Z,11.37
2017-06-28T13:40:00.493Z,12.07
2017-06-28T13:42:28.050Z,12.10
2017-06-28T13:44:55.578Z,12.47
2017-06-28T13:47:23.882Z,11.83
2017-06-28T13:49:51.408Z,11.63
2017-06-28T13:52:19.720Z,15.60
2017-06-28T13:54:47.281Z,14.07
2017-06-28T13:57:14.842Z,13.07
2017-06-28T13:59:42.401Z,11.03
2017-06-28T14:02:09.959Z,11.07
2017-06-28T14:04:37.512Z,10.63
2017-06-28T14:07:05.047Z,10.17
2017-06-28T14:09:32.568Z,11.33
2017-06-28T14:12:00.090Z,10.60
2017-06-28T14:14:27.609Z,11.60
2017-06-28T14:16:55.901Z,14.93
2017-06-28T14:19:23.485Z,12.37
2017-06-28T14:21:51.042Z,12.20
2017-06-28T14:24:18.565Z,12.73
2017-06-28T14:26:46.852Z,11.20
2017-06-28T14:29:14.396Z,10.90
2017-06-28T14:31:42.694Z,9.93
2017-06-28T14:34:10.271Z,9.50
2017-06-28T14:36:37.793Z,10.60
2017-06-28T14:39:06.076Z,10.47
2017-06-28T14:41:34.382Z,9.80
2017-06-28T14:44:01.942Z,9.83
2017-06-28T14:46:29.503Z,10.70
2017-06-28T14:48:57.060Z,11.60
2017-06-28T14:51:24.620Z,9.30
2017-06-28T14:53:52.173Z,9.83
2017-06-28T14:56:19.741Z,9.40
2017-06-28T14:58:47.296Z,10.40
2017-06-28T15:01:14.809Z,9.43
2017-06-28T15:03:43.101Z,11.27
2017-06-28T15:06:11.385Z,11.27
2017-06-28T15:08:38.973Z,10.90
2017-06-28T15:11:06.497Z,19.60
2017-06-28T15:13:34.020Z,14.87
2017-06-28T15:16:01.653Z,10.77
2017-06-28T15:18:29.204Z,11.00
2017-06-28T15:20:56.737Z,10.17
2017-06-28T15:23:24.338Z,10.23
2017-06-28T15:25:51.864Z,11.23
2017-06-28T15:28:19.441Z,13.40
2017-06-28T15:30:47.001Z,14.00
2017-06-28T15:33:14.540Z,14.33
2017-06-28T15:35:42.118Z,11.33
2017-06-28T15:38:09.681Z,10.47
2017-06-28T15:40:37.249Z,10.43
2017-06-28T15:43:04.793Z,8.53
2017-06-28T15:45:32.355Z,8.97
2017-06-28T15:47:59.910Z,8.53
2017-06-28T15:50:27.470Z,9.00
2017-06-28T15:52:55.033Z,9.10
2017-06-28T15:55:22.548Z,9.47
2017-06-28T15:57:50.863Z,12.47
2017-06-28T16:00:18.385Z,11.47
2017-06-28T16:02:46.707Z,12.17
2017-06-28T16:05:14.239Z,21.13
2017-06-28T16:07:41.763Z,12.47
2017-06-28T16:10:09.381Z,12.40
2017-06-28T16:12:36.933Z,17.27
2017-06-28T16:15:04.478Z,14.30
2017-06-28T16:17:32.050Z,18.20
2017-06-28T16:19:59.569Z,14.57
2017-06-28T16:22:27.894Z,18.33
2017-06-28T16:24:55.453Z,12.60
2017-06-28T16:27:23.003Z,14.50
2017-06-28T16:29:51.065Z,23.47
2017-06-28T16:32:18.582Z,13.40
2017-06-28T16:34:46.105Z,14.83
2017-06-28T16:37:13.651Z,15.50
2017-06-28T16:39:41.209Z,16.60
2017-06-28T16:42:08.737Z,12.77
2017-06-28T16:44:37.052Z,15.97
2017-06-28T16:47:04.577Z,12.07
2017-06-28T16:49:32.095Z,15.20
2017-06-28T16:51:59.730Z,15.23
2017-06-28T16:54:27.286Z,14.13
2017-06-28T16:56:54.838Z,11.27
2017-06-28T16:59:22.357Z,12.20
2017-06-28T17:01:50.650Z,12.53
2017-06-28T17:04:18.237Z,10.97
2017-06-28T17:06:45.792Z,12.33
2017-06-28T17:09:13.351Z,8.80
2017-06-28T17:11:40.869Z,6.90
2017-06-28T17:14:09.184Z,7.33
2017-06-28T17:16:36.746Z,7.70
2017-06-28T17:19:04.266Z,7.73
2017-06-28T17:21:32.548Z,8.80
2017-06-28T17:24:00.857Z,8.07
2017-06-28T17:26:28.421Z,8.00
2017-06-28T17:28:55.977Z,7.70
2017-06-28T17:31:23.538Z,8.20
2017-06-28T17:33:51.061Z,9.30
2017-06-28T17:36:18.656Z,8.90
2017-06-28T17:38:46.209Z,10.27
2017-06-28T17:41:13.769Z,9.67
2017-06-28T17:43:41.328Z,10.53
2017-06-28T17:46:08.885Z,12.83
2017-06-28T17:48:37.220Z,13.77
2017-06-28T17:51:05.541Z,15.07
2017-06-28T17:53:33.076Z,11.90
2017-06-28T17:56:00.661Z,12.47
2017-06-28T17:58:28.225Z,13.67
2017-06-28T18:00:55.779Z,12.77
2017-06-28T18:03:23.338Z,12.60
2017-06-28T18:05:50.864Z,12.40
2017-06-28T18:08:19.169Z,12.93
2017-06-28T18:10:46.693Z,12.97
2017-06-28T18:13:14.981Z,11.30
2017-06-28T18:15:42.570Z,13.50
2017-06-28T18:18:10.118Z,13.67
2017-06-28T18:20:37.684Z,12.37
2017-06-28T18:23:05.241Z,11.13
2017-06-28T18:25:32.799Z,12.83
2017-06-28T18:28:00.313Z,9.23
2017-06-28T18:30:28.642Z,9.67
2017-06-28T18:32:56.210Z,10.20
2017-06-28T18:35:23.733Z,8.73
2017-06-28T18:37:51.321Z,7.97
2017-06-28T18:40:18.872Z,8.50
2017-06-28T18:42:46.437Z,10.63
2017-06-28T18:45:14.002Z,9.13
2017-06-28T18:47:41.521Z,9.60
2017-06-28T18:50:09.107Z,8.90
2017-06-28T18:52:36.629Z,9.50
2017-06-28T18:55:04.945Z,13.67
2017-06-28T18:57:32.502Z,10.27
2017-06-28T19:00:00.065Z,9.20
2017-06-28T19:02:27.583Z,5.40
2017-06-28T19:04:55.901Z,4.30
2017-06-28T19:07:23.453Z,5.83
2017-06-28T19:09:51.012Z,5.50
2017-06-28T19:12:18.525Z,6.50
2017-06-28T19:14:46.851Z,6.97
2017-06-28T19:17:14.383Z,10.20
2017-06-28T19:19:42.067Z,8.97
2017-06-28T19:22:09.627Z,6.17
2017-06-28T19:24:37.145Z,4.90
2017-06-28T19:27:05.424Z,5.90
2017-06-28T19:29:33.737Z,6.27
2017-06-28T19:32:01.308Z,8.80
2017-06-28T19:34:28.861Z,7.30
2017-06-28T19:36:56.414Z,6.73
2017-06-28T19:39:23.929Z,6.13
2017-06-28T19:41:52.248Z,6.13
2017-06-28T19:44:19.809Z,6.90
2017-06-28T19:46:47.337Z,6.80
2017-06-28T19:49:15.612Z,7.40
2017-06-28T19:51:43.925Z,6.17
2017-06-28T19:54:11.478Z,7.10
2017-06-28T19:56:39.036Z,7.33
2017-06-28T19:59:06.605Z,6.40
2017-06-28T20:01:34.158Z,7.50
2017-06-28T20:04:01.718Z,7.67
2017-06-28T20:06:29.273Z,8.63
2017-06-28T20:08:56.796Z,8.10
2017-06-28T20:11:25.108Z,8.57
2017-06-28T20:13:52.665Z,7.80
2017-06-28T20:16:20.181Z,8.33
2017-06-28T20:18:48.505Z,9.33
2017-06-28T20:21:16.066Z,11.03
2017-06-28T20:23:43.620Z,13.63
2017-06-28T20:26:11.149Z,11.33
2017-06-28T20:28:39.437Z,10.30
2017-06-28T20:31:07.014Z,10.30
2017-06-28T20:33:34.573Z,11.17
2017-06-28T20:36:02.132Z,10.43
2017-06-28T20:38:29.657Z,10.23
2017-06-28T20:40:57.969Z,10.00
2017-06-28T20:43:25.490Z,10.57
2017-06-28T20:45:53.805Z,9.53
2017-06-28T20:48:21.336Z,8.27
2017-06-28T20:50:48.924Z,10.30
2017-06-28T20:53:16.482Z,9.00
2017-06-28T20:55:44.002Z,10.03
2017-06-28T20:58:12.313Z,10.97
2017-06-28T21:00:39.876Z,11.60
2017-06-28T21:03:07.437Z,10.00
2017-06-28T21:05:34.991Z,10.40
2017-06-28T21:08:02.550Z,11.10
2017-06-28T21:10:30.113Z,10.17
2017-06-28T21:12:57.666Z,11.10
2017-06-28T21:15:25.228Z,12.40
2017-06-28T21:17:52.786Z,11.40
2017-06-28T21:20:20.343Z,11.10
2017-06-28T21:22:47.868Z,10.63
2017-06-28T21:25:16.178Z,11.47
2017-06-28T21:27:43.742Z,12.30
2017-06-28T21:30:11.265Z,13.00
2017-06-28T21:32:39.573Z,10.87
2017-06-28T21:35:07.131Z,12.43
2017-06-28T21:37:34.655Z,11.90
2017-06-28T21:40:02.969Z,13.33
2017-06-28T21:42:30.534Z,12.43
2017-06-28T21:44:58.085Z,13.97
2017-06-28T21:47:25.649Z,14.67
2017-06-28T21:49:53.202Z,14.20
2017-06-28T21:52:20.762Z,13.70
2017-06-28T21:54:48.277Z,14.17
2017-06-28T21:57:16.559Z,13.83
2017-06-28T21:59:44.859Z,12.57
2017-06-28T22:02:12.431Z,14.70
2017-06-28T22:04:39.993Z,15.20
2017-06-28T22:07:07.548Z,15.30
2017-06-28T22:09:35.107Z,14.07
2017-06-28T22:12:02.982Z,13.53
2017-06-28T22:14:30.513Z,13.97
2017-06-28T22:16:58.093Z,14.00
2017-06-28T22:19:37.745Z,14.80
2017-06-28T22:22:05.293Z,14.60
2017-06-28T22:24:32.854Z,17.00
2017-06-28T22:27:00.370Z,18.13
2017-06-28T22:29:28.661Z,15.03
2017-06-28T22:31:56.177Z,14.70
2017-06-28T22:34:23.814Z,15.17
2017-06-28T22:36:51.349Z,13.00
2017-06-28T22:39:18.930Z,14.00
2017-06-28T22:41:46.486Z,13.33
2017-06-28T22:44:14.041Z,14.03
2017-06-28T22:46:41.569Z,12.70
2017-06-28T22:49:09.981Z,13.30
2017-06-28T22:51:37.537Z,13.33
2017-06-28T22:54:05.061Z,13.37
2017-06-28T22:56:33.353Z,12.30
2017-06-28T22:59:00.929Z,13.17
2017-06-28T23:01:28.461Z,14.67
2017-06-28T23:03:56.749Z,14.07
2017-06-28T23:06:24.331Z,14.67
2017-06-28T23:08:51.883Z,14.57
2017-06-28T23:11:19.417Z,14.37
2017-06-28T23:13:47.002Z,14.27
2017-06-28T23:16:14.560Z,14.17
2017-06-28T23:18:42.119Z,15.17
2017-06-28T23:21:09.677Z,13.30
2017-06-28T23:23:37.249Z,15.87
2017-06-28T23:26:04.797Z,15.17
2017-06-28T23:28:32.316Z,14.70
2017-06-28T23:31:00.608Z,14.90
2017-06-28T23:33:28.222Z,15.83
2017-06-28T23:35:55.850Z,16.17
2017-06-28T23:38:23.383Z,15.73
2017-06-28T23:40:50.913Z,16.70
2017-06-28T23:43:18.537Z,16.70
2017-06-28T23:45:46.091Z,15.93
2017-06-28T23:48:13.649Z,16.73
2017-06-28T23:50:41.413Z,15.87
2017-06-28T23:53:08.973Z,16.80
2017-06-28T23:55:36.500Z,17.50
2017-06-28T23:58:04.085Z,17.60
